Time;durP1;ratioP1;P1;durP2;ratioP2;P2;SDS_P1;SDS_P2;PMS_P1;PMS_P2;Temp;Humidity;BMP_temperature;BMP_pressure;BME280_temperature;BME280_humidity;BME280_pressure;Samples;Min_cycle;Max_cycle;Signal;HPM_P1;HPM_P2
2022/08/03 00:02:36;;;;;;;0.40;0.40;;;19.70;99.90;;;;;;5072590;28;20223;-69
2022/08/03 00:05:24;;;;;;;0.40;0.40;;;19.70;99.90;;;;;;5064542;28;20743;-68
2022/08/03 00:08:12;;;;;;;0.40;0.40;;;19.70;99.90;;;;;;5050368;28;20197;-68
2022/08/03 00:11:06;;;;;;;0.40;0.40;;;19.80;99.90;;;;;;5052196;28;20205;-69
2022/08/03 00:13:54;;;;;;;0.40;0.40;;;19.70;99.90;;;;;;5050819;28;20229;-69
2022/08/03 00:16:42;;;;;;;0.40;0.40;;;19.60;99.90;;;;;;5051868;28;20201;-68
2022/08/03 00:19:32;;;;;;;0.40;0.40;;;19.60;99.90;;;;;;5051231;28;20562;-69
2022/08/03 00:22:20;;;;;;;0.40;0.40;;;19.50;99.90;;;;;;5056274;28;20586;-69
2022/08/03 00:25:11;;;;;;;0.40;0.40;;;19.40;99.90;;;;;;5051370;28;20347;-69
2022/08/03 00:27:59;;;;;;;0.40;0.40;;;19.50;99.90;;;;;;5053320;28;20503;-69
2022/08/03 00:30:47;;;;;;;0.40;0.40;;;19.50;99.90;;;;;;5058918;28;20201;-69
2022/08/03 00:33:37;;;;;;;0.40;0.40;;;19.40;99.90;;;;;;5069186;28;20757;-69
2022/08/03 00:36:46;;;;;;;0.40;0.40;;;19.50;99.90;;;;;;5065678;28;20228;-69
2022/08/03 00:39:34;;;;;;;0.40;0.40;;;19.50;99.90;;;;;;5052228;28;20666;-69
2022/08/03 00:42:22;;;;;;;0.40;0.40;;;19.60;99.90;;;;;;5053175;28;20593;-69
2022/08/03 00:45:15;;;;;;;0.40;0.40;;;19.50;99.90;;;;;;5050456;28;20213;-69
2022/08/03 00:48:06;;;;;;;0.40;0.40;;;19.60;99.90;;;;;;5051662;28;20228;-69
2022/08/03 00:51:15;;;;;;;0.40;0.40;;;19.60;99.90;;;;;;5051241;28;20248;-69
2022/08/03 00:54:04;;;;;;;0.40;0.40;;;19.60;99.90;;;;;;5050684;28;20221;-69
2022/08/03 00:56:53;;;;;;;0.40;0.40;;;19.70;99.90;;;;;;5051479;28;20205;-69
2022/08/03 00:59:47;;;;;;;0.40;0.40;;;19.70;99.90;;;;;;5051241;28;20225;-69
2022/08/03 01:02:36;;;;;;;0.40;0.40;;;19.60;99.90;;;;;;5052910;28;20208;-69
2022/08/03 01:05:24;;;;;;;0.40;0.40;;;19.50;99.90;;;;;;5058462;28;20220;-69
2022/08/03 01:08:22;;;;;;;0.40;0.40;;;19.50;99.90;;;;;;5071893;28;20255;-69
2022/08/03 01:11:18;;;;;;;0.40;0.40;;;19.40;99.90;;;;;;5072270;28;20211;-69
2022/08/03 01:14:13;;;;;;;0.40;0.40;;;19.40;99.90;;;;;;5073746;28;20240;-68
2022/08/03 01:17:14;;;;;;;0.40;0.40;;;19.50;99.90;;;;;;5074183;28;20665;-69
2022/08/03 01:20:07;;;;;;;0.40;0.40;;;19.50;99.90;;;;;;5080042;28;20205;-69
2022/08/03 01:23:10;;;;;;;0.40;0.40;;;19.50;99.90;;;;;;5086833;28;20200;-69
2022/08/03 01:26:13;;;;;;;0.40;0.40;;;19.60;99.90;;;;;;5086300;28;20235;-68
2022/08/03 01:29:23;;;;;;;0.40;0.40;;;19.60;99.90;;;;;;5084481;28;20208;-68
2022/08/03 01:32:16;;;;;;;0.40;0.40;;;19.70;99.90;;;;;;5083294;28;20226;-68
2022/08/03 01:35:32;;;;;;;0.40;0.40;;;19.60;99.90;;;;;;5084812;28;20264;-68
2022/08/03 01:38:29;;;;;;;0.40;0.40;;;19.80;99.90;;;;;;5083691;28;20208;-68
2022/08/03 01:41:22;;;;;;;0.40;0.40;;;19.70;99.90;;;;;;5079030;28;20533;-68
2022/08/03 01:44:12;;;;;;;0.40;0.40;;;19.80;99.90;;;;;;5083063;28;20308;-68
2022/08/03 01:47:20;;;;;;;0.40;0.40;;;19.70;99.90;;;;;;5084585;28;20278;-68
2022/08/03 01:50:11;;;;;;;0.40;0.40;;;19.80;99.90;;;;;;5079302;28;20193;-68
2022/08/03 01:53:00;;;;;;;0.40;0.40;;;19.80;99.90;;;;;;5080240;28;20254;-68
2022/08/03 01:55:52;;;;;;;0.40;0.40;;;19.60;99.90;;;;;;5093858;28;20219;-69
2022/08/03 01:58:58;;;;;;;0.40;0.40;;;19.50;99.90;;;;;;5072894;28;20205;-68
2022/08/03 02:01:47;;;;;;;0.40;0.40;;;19.40;99.90;;;;;;5069781;28;20197;-67
2022/08/03 02:04:58;;;;;;;0.40;0.40;;;19.30;99.90;;;;;;5077218;28;20255;-68
2022/08/03 02:07:48;;;;;;;0.40;0.40;;;19.20;99.90;;;;;;5093675;28;20251;-68
2022/08/03 02:10:39;;;;;;;0.40;0.40;;;19.20;99.90;;;;;;5093095;28;20275;-68
2022/08/03 02:13:28;;;;;;;0.40;0.40;;;19.10;99.90;;;;;;5092883;28;20229;-68
2022/08/03 02:16:17;;;;;;;0.40;0.40;;;19.00;99.90;;;;;;5093025;28;20223;-68
2022/08/03 02:19:08;;;;;;;0.40;0.40;;;19.00;99.90;;;;;;5093029;28;20204;-68
2022/08/03 02:21:59;;;;;;;0.40;0.40;;;19.00;99.90;;;;;;5092399;28;20197;-67
2022/08/03 02:24:48;;;;;;;0.40;0.40;;;18.90;99.90;;;;;;5093877;28;20220;-68
2022/08/03 02:27:42;;;;;;;0.40;0.40;;;19.10;99.90;;;;;;5093769;28;20225;-68
2022/08/03 02:30:37;;;;;;;0.40;0.40;;;19.10;99.90;;;;;;5092534;28;20201;-68
2022/08/03 02:33:28;;;;;;;0.43;0.43;;;19.00;99.90;;;;;;5093030;28;20225;-68
2022/08/03 02:36:20;;;;;;;0.40;0.40;;;19.00;99.90;;;;;;5091980;28;20231;-68
2022/08/03 02:39:15;;;;;;;0.40;0.40;;;19.00;99.90;;;;;;5093344;28;20200;-69
2022/08/03 02:42:07;;;;;;;0.40;0.40;;;19.10;99.90;;;;;;5094213;28;20193;-68
2022/08/03 02:44:58;;;;;;;0.40;0.40;;;19.20;99.90;;;;;;5095717;28;20209;-68
2022/08/03 02:47:48;;;;;;;0.40;0.40;;;19.20;99.90;;;;;;5093208;28;20243;-68
2022/08/03 02:50:44;;;;;;;0.45;0.45;;;19.30;99.90;;;;;;5094215;28;20213;-68
2022/08/03 02:53:33;;;;;;;0.40;0.40;;;19.30;99.90;;;;;;5073950;28;20224;-69
2022/08/03 02:56:24;;;;;;;0.40;0.40;;;19.40;99.90;;;;;;5078112;28;20197;-69
2022/08/03 02:59:13;;;;;;;0.40;0.40;;;19.50;99.90;;;;;;5079132;28;20193;-69
2022/08/03 03:02:02;;;;;;;0.40;0.40;;;19.40;99.90;;;;;;5079946;28;20205;-69
2022/08/03 03:04:53;;;;;;;0.40;0.40;;;19.50;99.90;;;;;;5076743;28;20220;-69
2022/08/03 03:08:01;;;;;;;0.40;0.40;;;19.50;99.90;;;;;;5058772;28;20266;-69
2022/08/03 03:10:50;;;;;;;0.40;0.40;;;19.50;99.90;;;;;;5057240;28;20248;-69
2022/08/03 03:13:44;;;;;;;0.40;0.40;;;19.50;99.90;;;;;;5056355;28;20225;-69
2022/08/03 03:16:33;;;;;;;0.40;0.40;;;19.60;99.90;;;;;;5056043;28;20682;-69
2022/08/03 03:19:22;;;;;;;0.40;0.40;;;19.60;99.90;;;;;;5057156;28;20610;-70
2022/08/03 03:22:12;;;;;;;0.40;0.40;;;19.50;99.90;;;;;;5056785;28;20319;-69
2022/08/03 03:25:01;;;;;;;0.40;0.40;;;19.40;99.90;;;;;;5056863;28;20217;-69
2022/08/03 03:27:49;;;;;;;0.40;0.40;;;19.40;99.90;;;;;;5052837;28;20267;-69
2022/08/03 03:30:39;;;;;;;0.40;0.40;;;19.30;99.90;;;;;;5053184;28;20630;-69
2022/08/03 03:33:27;;;;;;;0.40;0.40;;;19.20;99.90;;;;;;5052280;28;20693;-69
2022/08/03 03:36:17;;;;;;;0.40;0.40;;;19.10;99.90;;;;;;5052098;28;20304;-69
2022/08/03 03:39:05;;;;;;;0.40;0.40;;;19.10;99.90;;;;;;5051942;28;20575;-69
2022/08/03 03:42:03;;;;;;;0.40;0.40;;;19.00;99.90;;;;;;5051143;28;20205;-68
2022/08/03 03:44:51;;;;;;;0.40;0.40;;;19.00;99.90;;;;;;5051975;28;20359;-69
2022/08/03 03:47:41;;;;;;;0.40;0.40;;;19.00;99.90;;;;;;5051915;28;20217;-69
2022/08/03 03:50:30;;;;;;;0.40;0.40;;;19.00;99.90;;;;;;5051549;28;20194;-69
2022/08/03 03:53:18;;;;;;;0.40;0.40;;;19.00;99.90;;;;;;5052032;28;20639;-69
2022/08/03 03:56:06;;;;;;;0.40;0.40;;;18.90;99.90;;;;;;5051201;28;20323;-69
2022/08/03 03:58:55;;;;;;;0.40;0.40;;;18.90;99.90;;;;;;5052367;28;20200;-69
2022/08/03 04:01:43;;;;;;;0.40;0.40;;;18.90;99.90;;;;;;5051474;28;20255;-69
2022/08/03 04:11:03;;;;;;;0.40;0.40;;;18.80;99.90;;;;;;5032271;28;20198;-69
2022/08/03 04:13:55;;;;;;;0.40;0.40;;;18.90;99.90;;;;;;5031796;28;20509;-69
2022/08/03 04:16:51;;;;;;;0.40;0.40;;;18.80;99.90;;;;;;5032599;28;20212;-70
2022/08/03 04:19:44;;;;;;;0.40;0.40;;;18.80;99.90;;;;;;5031912;28;20229;-70
2022/08/03 04:22:34;;;;;;;0.40;0.40;;;18.80;99.90;;;;;;5032895;28;20864;-69
2022/08/03 04:25:25;;;;;;;0.40;0.40;;;18.80;99.90;;;;;;5031859;28;20678;-70
2022/08/03 04:28:15;;;;;;;0.40;0.40;;;18.80;99.90;;;;;;5032646;28;20226;-69
2022/08/03 04:31:22;;;;;;;0.40;0.40;;;18.80;99.90;;;;;;5032235;28;20268;-69
2022/08/03 04:34:11;;;;;;;0.40;0.40;;;18.90;99.90;;;;;;5032271;28;20775;-69
2022/08/03 04:37:05;;;;;;;0.50;0.50;;;18.90;99.90;;;;;;5032002;28;20240;-69
2022/08/03 04:39:58;;;;;;;0.40;0.40;;;18.90;99.90;;;;;;5032474;28;20268;-69
2022/08/03 04:42:48;;;;;;;0.40;0.40;;;18.90;99.90;;;;;;5034972;28;20202;-69
2022/08/03 04:45:37;;;;;;;0.40;0.40;;;19.00;99.90;;;;;;5051298;28;20702;-69
2022/08/03 04:48:25;;;;;;;0.40;0.40;;;19.00;99.90;;;;;;5049679;28;20225;-69
2022/08/03 04:51:14;;;;;;;0.40;0.40;;;19.30;99.90;;;;;;5034280;28;20198;-69
2022/08/03 04:54:03;;;;;;;0.40;0.40;;;19.20;99.90;;;;;;5034329;28;20222;-69
2022/08/03 04:56:51;;;;;;;0.40;0.40;;;19.20;99.90;;;;;;5036788;28;20236;-69
2022/08/03 04:59:39;;;;;;;0.40;0.40;;;19.30;99.90;;;;;;5034978;28;20684;-69
2022/08/03 05:02:27;;;;;;;0.40;0.40;;;19.30;99.90;;;;;;5035716;28;20626;-69
2022/08/03 05:05:16;;;;;;;0.40;0.40;;;19.30;99.90;;;;;;5047860;28;20200;-69
2022/08/03 05:08:06;;;;;;;0.40;0.40;;;19.40;99.90;;;;;;5075368;28;20227;-69
2022/08/03 05:10:59;;;;;;;0.40;0.40;;;19.50;99.90;;;;;;5075352;28;20213;-69
2022/08/03 05:13:48;;;;;;;0.40;0.40;;;19.60;99.90;;;;;;5075290;28;20220;-69
2022/08/03 05:16:36;;;;;;;0.40;0.40;;;19.60;99.90;;;;;;5074456;28;20200;-69
2022/08/03 05:19:24;;;;;;;0.40;0.40;;;19.70;99.90;;;;;;5074558;28;20201;-69
2022/08/03 05:22:12;;;;;;;0.40;0.40;;;19.70;99.90;;;;;;5075066;28;20197;-69
2022/08/03 05:25:01;;;;;;;0.40;0.40;;;19.80;99.90;;;;;;5074848;28;20217;-69
2022/08/03 05:27:50;;;;;;;0.40;0.40;;;19.80;99.90;;;;;;5074707;28;20723;-69
2022/08/03 05:30:38;;;;;;;0.40;0.40;;;19.90;99.90;;;;;;5075548;28;20197;-69
2022/08/03 05:33:26;;;;;;;0.40;0.40;;;20.00;99.90;;;;;;5074731;28;20247;-69
2022/08/03 05:36:14;;;;;;;0.40;0.40;;;20.20;99.90;;;;;;5075393;28;20273;-69
2022/08/03 05:39:02;;;;;;;0.40;0.40;;;20.10;99.90;;;;;;5075124;28;20193;-70
2022/08/03 05:41:51;;;;;;;0.40;0.40;;;20.20;99.90;;;;;;5074419;28;20197;-70
2022/08/03 05:44:40;;;;;;;0.40;0.40;;;20.30;99.90;;;;;;5075246;28;20231;-69
2022/08/03 05:47:29;;;;;;;0.40;0.40;;;20.40;99.90;;;;;;5074225;28;20204;-70
2022/08/03 05:50:18;;;;;;;0.40;0.40;;;20.60;99.90;;;;;;5073720;28;20692;-70
2022/08/03 05:53:06;;;;;;;0.40;0.40;;;20.60;99.90;;;;;;5073929;28;20217;-69
2022/08/03 05:55:55;;;;;;;0.40;0.40;;;20.70;99.90;;;;;;5073314;28;20228;-70
2022/08/03 05:59:00;;;;;;;0.40;0.40;;;20.80;99.90;;;;;;5074297;28;20200;-71
2022/08/03 06:02:09;;;;;;;0.40;0.40;;;20.90;99.90;;;;;;5073679;28;20296;-70
2022/08/03 06:04:57;;;;;;;0.40;0.40;;;21.10;99.90;;;;;;5068461;28;20220;-70
2022/08/03 06:07:46;;;;;;;0.40;0.40;;;21.10;99.90;;;;;;5052834;28;20209;-70
2022/08/03 06:10:34;;;;;;;0.40;0.40;;;21.20;99.90;;;;;;5052307;28;20243;-70
2022/08/03 06:13:25;;;;;;;0.40;0.40;;;21.30;99.90;;;;;;5053619;28;20225;-70
2022/08/03 06:16:13;;;;;;;0.40;0.40;;;21.40;99.90;;;;;;5049577;28;20201;-69
2022/08/03 06:19:04;;;;;;;0.40;0.40;;;21.50;99.90;;;;;;5053900;28;20249;-68
2022/08/03 06:21:52;;;;;;;0.40;0.40;;;21.60;99.90;;;;;;5053445;28;20297;-69
2022/08/03 06:24:40;;;;;;;0.40;0.40;;;21.80;99.90;;;;;;5053863;28;20610;-68
2022/08/03 06:27:40;;;;;;;0.40;0.40;;;21.80;99.90;;;;;;5053390;28;20204;-68
2022/08/03 06:30:28;;;;;;;0.40;0.40;;;22.00;99.90;;;;;;5053474;28;20201;-68
2022/08/03 06:33:16;;;;;;;0.40;0.40;;;22.10;99.90;;;;;;5052940;28;20225;-70
2022/08/03 06:36:06;;;;;;;0.40;0.40;;;22.20;99.90;;;;;;5053192;28;20202;-69
2022/08/03 06:38:54;;;;;;;0.40;0.40;;;22.40;99.90;;;;;;5053429;28;20190;-69
2022/08/03 06:41:42;;;;;;;0.40;0.40;;;22.50;99.90;;;;;;5052691;28;20197;-70
2022/08/03 06:44:32;;;;;;;0.40;0.40;;;22.60;99.90;;;;;;5051568;28;20229;-69
2022/08/03 06:47:20;;;;;;;0.40;0.40;;;22.80;99.90;;;;;;5053330;28;20205;-69
2022/08/03 06:50:10;;;;;;;0.40;0.40;;;22.90;99.90;;;;;;5057782;28;20216;-70
2022/08/03 06:53:06;;;;;;;0.40;0.40;;;23.00;99.90;;;;;;5032628;28;20301;-68
2022/08/03 06:55:54;;;;;;;0.40;0.40;;;23.20;99.90;;;;;;5037543;28;20670;-68
2022/08/03 06:58:42;;;;;;;0.40;0.40;;;23.30;99.90;;;;;;5051987;28;20216;-69
2022/08/03 07:01:33;;;;;;;0.40;0.40;;;23.40;99.90;;;;;;5055750;28;20746;-69
2022/08/03 07:04:21;;;;;;;0.40;0.40;;;23.60;99.90;;;;;;5072135;28;20708;-69
2022/08/03 07:07:09;;;;;;;0.40;0.40;;;23.80;99.90;;;;;;5072452;28;20280;-68
2022/08/03 07:09:59;;;;;;;0.40;0.40;;;23.80;99.90;;;;;;5046524;28;20287;-68
2022/08/03 07:12:49;;;;;;;0.40;0.40;;;24.00;99.90;;;;;;5052480;28;20201;-68
2022/08/03 07:15:43;;;;;;;0.40;0.40;;;24.10;99.90;;;;;;5032203;28;20205;-67
2022/08/03 07:18:43;;;;;;;0.40;0.40;;;24.20;99.30;;;;;;5031569;28;20226;-68
2022/08/03 07:21:31;;;;;;;0.40;0.40;;;24.40;98.70;;;;;;5032455;28;20209;-67
2022/08/03 07:24:19;;;;;;;0.40;0.40;;;24.60;98.50;;;;;;5032456;28;20234;-68
2022/08/03 07:27:09;;;;;;;0.40;0.40;;;24.60;98.50;;;;;;5052726;28;20255;-68
2022/08/03 07:29:58;;;;;;;0.40;0.40;;;24.60;98.10;;;;;;5051041;28;20775;-68
2022/08/03 07:32:46;;;;;;;0.40;0.40;;;24.70;98.10;;;;;;5051734;28;20257;-68
2022/08/03 07:35:37;;;;;;;0.40;0.40;;;24.70;98.00;;;;;;5051291;28;20190;-68
2022/08/03 07:38:25;;;;;;;0.40;0.40;;;24.80;97.70;;;;;;5038721;28;20194;-68
2022/08/03 07:41:13;;;;;;;0.40;0.40;;;24.90;96.70;;;;;;5050267;28;20205;-68
2022/08/03 07:44:03;;;;;;;0.40;0.40;;;25.00;96.30;;;;;;5051945;28;20540;-68
2022/08/03 07:46:51;;;;;;;0.40;0.40;;;25.10;96.10;;;;;;5052923;28;20308;-68
2022/08/03 07:49:40;;;;;;;0.40;0.40;;;25.20;96.00;;;;;;5037693;28;20871;-69
2022/08/03 07:55:34;;;;;;;0.40;0.40;;;25.30;95.40;;;;;;5052031;28;20986;-68
2022/08/03 07:58:23;;;;;;;0.40;0.40;;;25.40;95.10;;;;;;5050820;28;20197;-68
2022/08/03 08:01:12;;;;;;;0.40;0.40;;;25.60;94.70;;;;;;5051018;28;20205;-68
2022/08/03 08:04:02;;;;;;;0.40;0.40;;;25.70;94.20;;;;;;5051254;28;20225;-68
2022/08/03 08:06:50;;;;;;;0.40;0.40;;;25.80;94.10;;;;;;5051257;28;20267;-68
2022/08/03 08:09:38;;;;;;;4.32;0.85;;;25.80;92.90;;;;;;5051521;28;20213;-68
2022/08/03 08:12:26;;;;;;;0.40;0.40;;;25.90;92.30;;;;;;5051668;28;20282;-67
2022/08/03 08:15:14;;;;;;;0.40;0.40;;;26.10;92.10;;;;;;5051452;28;20205;-68
2022/08/03 08:18:03;;;;;;;0.40;0.40;;;26.30;90.90;;;;;;5051312;28;20209;-68
2022/08/03 08:20:51;;;;;;;0.40;0.40;;;26.40;90.70;;;;;;5050820;28;20198;-68
2022/08/03 08:23:40;;;;;;;0.40;0.40;;;26.40;89.70;;;;;;5051459;28;20783;-67
2022/08/03 08:26:31;;;;;;;0.40;0.40;;;26.40;87.00;;;;;;5051368;28;20251;-68
2022/08/03 08:29:21;;;;;;;0.50;0.50;;;26.50;87.80;;;;;;5053113;28;20601;-67
2022/08/03 08:32:12;;;;;;;0.40;0.40;;;26.60;85.10;;;;;;5039922;28;20682;-68
2022/08/03 08:35:01;;;;;;;0.40;0.40;;;26.60;85.80;;;;;;5054634;28;20334;-68
2022/08/03 08:37:49;;;;;;;0.40;0.40;;;26.70;85.50;;;;;;5055123;28;20205;-68
2022/08/03 08:40:38;;;;;;;0.40;0.40;;;26.70;85.20;;;;;;5054222;28;20276;-67
2022/08/03 08:43:27;;;;;;;0.40;0.40;;;26.80;83.60;;;;;;5054626;28;20256;-67
2022/08/03 08:46:16;;;;;;;0.40;0.40;;;26.90;84.70;;;;;;5054281;28;20262;-67
2022/08/03 08:49:13;;;;;;;0.40;0.40;;;27.00;83.90;;;;;;5055109;28;20299;-67
2022/08/03 08:52:03;;;;;;;0.40;0.40;;;27.10;84.40;;;;;;5054315;28;20198;-69
2022/08/03 08:55:19;;;;;;;0.40;0.40;;;27.30;81.40;;;;;;5054149;28;20197;-67
2022/08/03 08:58:11;;;;;;;0.68;0.68;;;27.30;81.70;;;;;;5054428;28;20266;-68
2022/08/03 09:01:07;;;;;;;0.50;0.50;;;27.50;83.30;;;;;;5054063;28;20286;-69
2022/08/03 09:03:36;;;;;;;0.40;0.40;;;27.60;83.60;;;;;;5054774;28;20253;-70
2022/08/03 09:06:04;;;;;;;0.40;0.40;;;27.70;83.00;;;;;;5068056;28;20224;-69
2022/08/03 09:08:34;;;;;;;0.40;0.40;;;27.70;82.90;;;;;;5075359;28;20208;-69
2022/08/03 09:11:03;;;;;;;0.40;0.40;;;27.80;83.10;;;;;;5059661;28;20222;-68
2022/08/03 09:13:32;;;;;;;0.40;0.40;;;27.80;82.40;;;;;;5056291;28;20298;-68
2022/08/03 09:16:14;;;;;;;0.40;0.40;;;27.80;81.40;;;;;;5056014;28;20197;-68
2022/08/03 09:18:44;;;;;;;0.40;0.40;;;27.80;81.60;;;;;;5055595;28;20201;-68
2022/08/03 09:21:17;;;;;;;0.50;0.50;;;27.80;81.70;;;;;;5054859;28;20229;-68
2022/08/03 09:24:04;;;;;;;0.40;0.40;;;28.00;82.10;;;;;;5054687;28;20217;-68
2022/08/03 09:26:52;;;;;;;0.40;0.40;;;28.10;81.30;;;;;;5054725;28;20205;-68
2022/08/03 09:29:22;;;;;;;0.40;0.40;;;28.10;81.20;;;;;;5054361;28;20255;-68
2022/08/03 09:32:01;;;;;;;0.40;0.40;;;28.20;81.10;;;;;;5054742;28;20209;-68
2022/08/03 09:34:29;;;;;;;0.40;0.40;;;28.30;80.90;;;;;;5054636;28;20229;-68
2022/08/03 09:36:58;;;;;;;0.40;0.40;;;28.30;81.20;;;;;;5054662;28;20205;-68
2022/08/03 09:39:30;;;;;;;0.40;0.40;;;28.30;80.00;;;;;;5053437;28;20205;-68
2022/08/03 09:42:10;;;;;;;0.40;0.40;;;28.30;79.90;;;;;;5054650;28;20198;-69
2022/08/03 09:44:43;;;;;;;0.40;0.40;;;28.30;79.50;;;;;;5054161;28;20232;-67
2022/08/03 09:47:12;;;;;;;0.50;0.50;;;28.40;79.90;;;;;;5054498;28;20197;-68
2022/08/03 09:49:42;;;;;;;0.40;0.40;;;28.40;79.90;;;;;;5053911;28;20221;-68
2022/08/03 09:52:16;;;;;;;1.20;1.10;;;28.40;78.90;;;;;;5054442;28;20387;-68
2022/08/03 09:55:10;;;;;;;0.40;0.40;;;28.50;79.20;;;;;;5054778;28;20253;-68
2022/08/03 09:58:05;;;;;;;0.40;0.40;;;28.50;79.50;;;;;;5054692;28;20271;-68
2022/08/03 10:00:53;;;;;;;0.40;0.40;;;28.60;78.30;;;;;;5053989;28;20196;-68
2022/08/03 10:03:22;;;;;;;0.40;0.40;;;28.70;77.40;;;;;;5054498;28;20296;-68
2022/08/03 10:05:50;;;;;;;0.52;0.52;;;28.80;77.00;;;;;;5064998;28;20283;-68
2022/08/03 10:08:23;;;;;;;0.40;0.40;;;29.00;76.10;;;;;;5074145;28;20279;-68
2022/08/03 10:10:57;;;;;;;0.40;0.40;;;29.00;76.10;;;;;;5073448;28;20231;-69
2022/08/03 10:13:25;;;;;;;1.05;0.68;;;29.10;76.60;;;;;;5093991;22;20339;-63
2022/08/03 10:16:14;;;;;;;0.40;0.40;;;29.10;75.10;;;;;;5052786;28;20271;-63
2022/08/03 10:18:55;;;;;;;0.40;0.40;;;29.10;75.70;;;;;;5053517;28;20209;-63
2022/08/03 10:21:23;;;;;;;2.45;2.35;;;29.10;76.10;;;;;;5053319;28;20255;-63
2022/08/03 10:23:53;;;;;;;0.40;0.40;;;29.20;75.50;;;;;;5053682;28;20300;-62
2022/08/03 10:26:24;;;;;;;0.40;0.40;;;29.30;75.20;;;;;;5053659;28;20197;-63
2022/08/03 10:28:56;;;;;;;0.40;0.40;;;29.30;75.10;;;;;;5053448;28;20239;-63
2022/08/03 10:31:24;;;;;;;0.40;0.40;;;29.40;74.30;;;;;;5053205;28;20221;-63
2022/08/03 10:33:57;;;;;;;0.40;0.40;;;29.40;74.30;;;;;;5053310;28;20229;-63
2022/08/03 10:36:30;;;;;;;0.45;0.45;;;29.60;74.30;;;;;;5053370;28;20211;-63
2022/08/03 10:39:00;;;;;;;0.40;0.40;;;29.60;74.00;;;;;;5053259;28;20206;-63
2022/08/03 10:41:34;;;;;;;0.40;0.40;;;29.70;73.80;;;;;;5053243;28;20676;-63
2022/08/03 10:44:05;;;;;;;0.50;0.50;;;29.70;74.10;;;;;;5053030;28;20697;-64
2022/08/03 10:46:34;;;;;;;0.40;0.40;;;29.80;74.50;;;;;;5053412;28;20208;-63
2022/08/03 10:49:03;;;;;;;0.40;0.40;;;29.90;73.70;;;;;;5052941;28;20661;-63
2022/08/03 10:51:32;;;;;;;0.40;0.40;;;29.90;73.80;;;;;;5052811;28;20693;-63
2022/08/03 10:54:00;;;;;;;0.40;0.40;;;29.80;73.10;;;;;;5053129;28;20656;-63
2022/08/03 10:59:59;;;;;;;0.40;0.40;;;29.80;73.80;;;;;;5052682;28;20673;-63
2022/08/03 11:03:05;;;;;;;0.40;0.40;;;29.90;73.30;;;;;;5052879;28;20693;-63
2022/08/03 11:05:35;;;;;;;0.40;0.40;;;30.00;72.70;;;;;;5052719;28;20626;-63
2022/08/03 11:08:20;;;;;;;0.40;0.40;;;30.00;72.60;;;;;;5052753;28;20586;-63
2022/08/03 11:10:50;;;;;;;0.40;0.40;;;30.00;72.40;;;;;;5040571;28;20612;-63
2022/08/03 11:13:21;;;;;;;0.40;0.40;;;30.10;72.50;;;;;;5052259;28;20202;-63
2022/08/03 11:15:52;;;;;;;0.40;0.40;;;30.30;72.60;;;;;;5052482;28;20572;-63
2022/08/03 11:18:29;;;;;;;0.40;0.40;;;30.30;73.00;;;;;;5051590;28;20196;-63
2022/08/03 11:20:58;;;;;;;0.43;0.43;;;30.30;72.90;;;;;;5050888;28;20602;-63
2022/08/03 11:23:44;;;;;;;0.60;0.60;;;30.50;72.90;;;;;;5052271;28;20230;-64
2022/08/03 11:26:34;;;;;;;0.40;0.40;;;30.60;71.80;;;;;;5052580;28;20224;-63
2022/08/03 11:29:28;;;;;;;0.40;0.40;;;30.50;71.30;;;;;;5052394;28;20733;-64
2022/08/03 11:31:57;;;;;;;0.40;0.40;;;30.60;72.10;;;;;;5052358;28;20213;-64
2022/08/03 11:34:25;;;;;;;0.40;0.40;;;30.60;71.90;;;;;;5052493;28;20221;-63
2022/08/03 11:37:19;;;;;;;0.40;0.40;;;30.70;72.70;;;;;;5052628;28;20201;-63
2022/08/03 11:39:51;;;;;;;0.40;0.40;;;30.80;73.30;;;;;;5052236;28;20233;-63
2022/08/03 11:42:38;;;;;;;0.40;0.40;;;30.90;71.30;;;;;;5052260;28;20201;-63
2022/08/03 11:45:09;;;;;;;0.40;0.40;;;31.00;71.30;;;;;;5051878;28;20221;-63
2022/08/03 11:47:40;;;;;;;0.40;0.40;;;31.00;71.00;;;;;;5052142;28;20206;-63
2022/08/03 11:50:20;;;;;;;0.40;0.40;;;31.10;69.60;;;;;;5051732;28;20259;-63
2022/08/03 11:52:49;;;;;;;0.55;0.55;;;31.10;70.10;;;;;;5051682;28;20201;-63
2022/08/03 11:55:20;;;;;;;0.40;0.40;;;31.10;70.40;;;;;;5052046;28;20218;-63
2022/08/03 11:57:49;;;;;;;0.40;0.40;;;31.20;69.00;;;;;;5051993;28;20201;-64
2022/08/03 12:00:38;;;;;;;0.40;0.40;;;31.10;69.30;;;;;;5051665;28;20635;-63
2022/08/03 12:03:09;;;;;;;0.40;0.40;;;31.20;69.40;;;;;;5051206;28;20216;-63
2022/08/03 12:05:43;;;;;;;0.40;0.40;;;31.30;69.00;;;;;;5052124;28;20201;-63
2022/08/03 12:08:29;;;;;;;0.40;0.40;;;31.30;68.60;;;;;;5052451;28;20197;-63
2022/08/03 12:11:00;;;;;;;0.40;0.40;;;31.60;69.80;;;;;;5051949;28;20209;-63
2022/08/03 12:13:38;;;;;;;0.40;0.40;;;31.80;68.90;;;;;;5051781;28;20229;-63
2022/08/03 12:16:28;;;;;;;0.40;0.40;;;32.00;69.20;;;;;;5052164;28;20201;-63
2022/08/03 12:18:57;;;;;;;0.40;0.40;;;32.20;68.80;;;;;;5051912;28;20205;-64
2022/08/03 12:21:25;;;;;;;0.45;0.45;;;32.40;68.00;;;;;;5051823;28;20248;-63
2022/08/03 12:23:58;;;;;;;0.40;0.40;;;32.50;67.30;;;;;;5051495;28;20217;-63
2022/08/03 12:26:27;;;;;;;0.40;0.40;;;32.50;66.70;;;;;;5051474;28;20205;-63
2022/08/03 12:28:56;;;;;;;0.40;0.40;;;32.60;67.10;;;;;;5051656;28;20232;-63
2022/08/03 12:31:24;;;;;;;0.40;0.40;;;32.60;67.50;;;;;;5051501;28;20233;-63
2022/08/03 12:34:00;;;;;;;0.40;0.40;;;32.60;67.00;;;;;;5051615;28;20217;-64
2022/08/03 12:36:30;;;;;;;0.40;0.40;;;32.70;66.00;;;;;;5051804;28;20203;-63
2022/08/03 12:39:00;;;;;;;0.40;0.40;;;32.70;65.30;;;;;;5051278;28;20276;-63
2022/08/03 12:41:30;;;;;;;0.40;0.40;;;32.70;66.10;;;;;;5051557;28;20193;-63
2022/08/03 12:43:58;;;;;;;0.40;0.40;;;32.80;65.90;;;;;;5051503;28;20232;-63
2022/08/03 12:46:31;;;;;;;0.40;0.40;;;33.00;65.90;;;;;;5051321;28;20281;-63
2022/08/03 12:49:12;;;;;;;0.40;0.40;;;33.20;65.80;;;;;;5051548;28;20197;-63
2022/08/03 12:51:56;;;;;;;0.40;0.40;;;33.90;65.20;;;;;;5051736;28;20228;-64
2022/08/03 12:54:26;;;;;;;0.40;0.40;;;35.20;62.70;;;;;;5051671;28;20225;-65
2022/08/03 12:56:59;;;;;;;0.40;0.40;;;36.50;60.60;;;;;;5051430;28;20748;-63
2022/08/03 12:59:31;;;;;;;0.40;0.40;;;38.20;58.00;;;;;;5050783;28;20677;-63
2022/08/03 13:02:03;;;;;;;0.40;0.40;;;39.90;56.00;;;;;;5051855;28;20194;-64
2022/08/03 13:04:38;;;;;;;0.40;0.40;;;41.40;52.60;;;;;;5051517;28;20639;-64
2022/08/03 13:07:07;;;;;;;0.40;0.40;;;43.90;47.50;;;;;;5051263;28;20255;-64
2022/08/03 13:09:46;;;;;;;0.40;0.40;;;43.90;47.70;;;;;;5051135;28;20550;-64
2022/08/03 13:12:16;;;;;;;0.40;0.40;;;45.10;44.90;;;;;;5051021;28;20625;-64
2022/08/03 13:14:45;;;;;;;0.40;0.40;;;46.30;43.70;;;;;;5052351;28;20604;-64
2022/08/03 13:17:15;;;;;;;0.50;0.50;;;47.10;42.30;;;;;;5055274;28;20576;-64
2022/08/03 13:19:46;;;;;;;0.50;0.50;;;47.90;40.40;;;;;;5054604;28;20550;-64
2022/08/03 13:22:16;;;;;;;0.60;0.60;;;48.30;39.10;;;;;;5054576;28;20594;-64
2022/08/03 13:24:45;;;;;;;0.50;0.50;;;48.50;38.40;;;;;;5054353;28;20595;-64
2022/08/03 13:27:14;;;;;;;0.50;0.50;;;48.70;37.30;;;;;;5054553;28;20197;-65
2022/08/03 13:30:02;;;;;;;0.50;0.50;;;49.20;37.00;;;;;;5054325;28;20431;-65
2022/08/03 13:32:30;;;;;;;0.60;0.60;;;49.60;36.10;;;;;;5054584;28;20197;-64
2022/08/03 13:35:01;;;;;;;0.65;0.65;;;50.00;35.40;;;;;;5054288;28;20225;-64
2022/08/03 13:37:30;;;;;;;0.60;0.60;;;50.30;34.90;;;;;;5054561;28;20239;-64
2022/08/03 13:39:59;;;;;;;0.60;0.60;;;50.20;34.40;;;;;;5054221;28;20201;-64
2022/08/03 13:42:31;;;;;;;0.60;0.60;;;50.50;34.70;;;;;;5054448;28;20307;-65
2022/08/03 13:45:00;;;;;;;0.70;0.70;;;50.90;33.80;;;;;;5054557;28;20221;-65
2022/08/03 13:47:29;;;;;;;0.73;0.73;;;51.10;33.40;;;;;;5054121;28;20201;-65
2022/08/03 13:49:57;;;;;;;0.70;0.70;;;51.30;33.10;;;;;;5054033;28;20254;-65
2022/08/03 13:52:32;;;;;;;0.70;0.70;;;51.70;33.20;;;;;;5054166;28;20614;-65
2022/08/03 13:55:01;;;;;;;0.70;0.70;;;51.60;32.80;;;;;;5054237;28;20300;-65
2022/08/03 13:57:29;;;;;;;0.70;0.70;;;51.40;32.60;;;;;;5054074;28;20286;-65
2022/08/03 14:00:22;;;;;;;0.70;0.70;;;51.20;32.70;;;;;;5053316;28;20281;-65
2022/08/03 14:02:58;;;;;;;0.70;0.70;;;51.20;32.70;;;;;;5053686;28;20221;-66
2022/08/03 14:05:41;;;;;;;0.70;0.70;;;50.60;32.80;;;;;;5054294;28;20193;-65
2022/08/03 14:08:11;;;;;;;0.70;0.70;;;48.70;33.30;;;;;;5053701;28;20227;-65
2022/08/03 14:10:42;;;;;;;0.60;0.60;;;47.40;34.50;;;;;;5053551;28;20207;-65
2022/08/03 14:13:11;;;;;;;0.60;0.60;;;46.10;34.90;;;;;;5053554;28;20208;-65
2022/08/03 14:15:43;;;;;;;0.50;0.50;;;44.60;36.60;;;;;;5053918;28;20219;-65
2022/08/03 14:18:19;;;;;;;0.50;0.50;;;43.40;36.90;;;;;;5053844;28;20270;-65
2022/08/03 14:21:01;;;;;;;0.50;0.50;;;42.20;39.00;;;;;;5053390;28;20202;-65
2022/08/03 14:23:36;;;;;;;0.50;0.50;;;41.70;39.80;;;;;;5053717;28;20226;-64
2022/08/03 14:26:04;;;;;;;0.50;0.50;;;42.60;39.60;;;;;;5053335;28;20193;-65
2022/08/03 14:28:32;;;;;;;0.60;0.60;;;44.30;38.20;;;;;;5053537;28;20661;-65
2022/08/03 14:31:01;;;;;;;0.88;0.88;;;45.90;36.50;;;;;;5053468;28;20243;-65